Time;durP1;ratioP1;P1;durP2;ratioP2;P2;SDS_P1;SDS_P2;PMS_P1;PMS_P2;Temp;Humidity;BMP_temperature;BMP_pressure;BME280_temperature;BME280_humidity;BME280_pressure;Samples;Min_cycle;Max_cycle;Signal;HPM_P1;HPM_P2
2023/02/28 00:00:40;;;;;;;6.70;2.70;;;;;;;-0.59;63.64;101526.13;1774308;80;21111;-63
2023/02/28 00:03:09;;;;;;;5.15;2.67;;;;;;;-0.59;63.54;101525.26;1774375;80;21103;-62
2023/02/28 00:05:39;;;;;;;4.72;2.80;;;;;;;-0.61;63.30;101516.42;1774515;80;21116;-64
2023/02/28 00:08:08;;;;;;;5.70;2.80;;;;;;;-0.68;63.12;101516.78;1774458;81;21166;-62
2023/02/28 00:10:39;;;;;;;4.72;2.47;;;;;;;-0.71;63.33;101514.28;1763658;81;21095;-61
2023/02/28 00:13:10;;;;;;;4.85;2.67;;;;;;;-0.72;63.35;101515.73;1774444;81;21155;-64
2023/02/28 00:15:40;;;;;;;5.17;2.67;;;;;;;-0.73;63.27;101520.73;1774489;81;21147;-62
2023/02/28 00:18:08;;;;;;;6.70;2.80;;;;;;;-0.73;63.33;101522.08;1774381;80;21080;-62
2023/02/28 00:20:38;;;;;;;6.97;2.67;;;;;;;-0.74;63.38;101517.17;1774327;81;21159;-62
2023/02/28 00:23:08;;;;;;;4.80;2.30;;;;;;;-0.72;63.35;101514.38;1774642;80;21116;-62
2023/02/28 00:25:37;;;;;;;4.97;2.47;;;;;;;-0.73;63.43;101514.87;1774289;81;21159;-63
2023/02/28 00:28:06;;;;;;;4.62;2.58;;;;;;;-0.72;63.46;101529.19;1774492;81;21151;-63
2023/02/28 00:30:35;;;;;;;6.40;2.80;;;;;;;-0.70;63.59;101520.53;1774540;80;21159;-63
2023/02/28 00:33:07;;;;;;;4.58;2.80;;;;;;;-0.67;63.61;101523.02;1774408;80;21088;-65
2023/02/28 00:35:36;;;;;;;4.60;2.52;;;;;;;-0.68;63.59;101524.85;1775114;79;21135;-62
2023/02/28 00:38:05;;;;;;;5.75;2.52;;;;;;;-0.70;63.64;101522.73;1788214;80;21151;-62
2023/02/28 00:40:37;;;;;;;4.42;2.60;;;;;;;-0.71;63.75;101521.02;1787898;80;21131;-63
2023/02/28 00:43:06;;;;;;;4.97;2.62;;;;;;;-0.68;63.77;101521.30;1788217;80;21527;-62
2023/02/28 00:45:35;;;;;;;5.15;2.65;;;;;;;-0.68;63.59;101519.95;1788159;79;21139;-63
2023/02/28 00:48:07;;;;;;;5.10;2.35;;;;;;;-0.70;63.60;101520.53;1787883;80;21581;-62
2023/02/28 00:50:37;;;;;;;4.12;2.37;;;;;;;-0.73;63.46;101520.73;1788061;79;21115;-63
2023/02/28 00:53:07;;;;;;;6.53;3.10;;;;;;;-0.79;63.51;101526.02;1787980;79;21130;-62
2023/02/28 00:55:36;;;;;;;8.83;3.52;;;;;;;-0.83;63.65;101511.03;1788079;80;21146;-61
2023/02/28 00:58:05;;;;;;;5.37;2.40;;;;;;;-0.81;63.77;101519.00;1788168;79;21127;-64
2023/02/28 01:00:34;;;;;;;6.15;3.10;;;;;;;-0.80;63.66;101523.42;1788248;79;21571;-63
2023/02/28 01:03:03;;;;;;;5.55;2.55;;;;;;;-0.81;63.68;101520.35;1788158;80;21146;-63
2023/02/28 01:05:35;;;;;;;6.47;2.52;;;;;;;-0.84;63.71;101526.79;1788186;80;21601;-61
2023/02/28 01:08:06;;;;;;;6.33;2.60;;;;;;;-0.83;63.70;101527.17;1788221;79;21154;-63
2023/02/28 01:10:36;;;;;;;7.08;3.00;;;;;;;-0.84;63.75;101521.89;1788356;80;21138;-63
2023/02/28 01:13:05;;;;;;;4.60;2.60;;;;;;;-0.82;63.79;101525.34;1787959;79;21107;-62
2023/02/28 01:15:34;;;;;;;4.53;2.40;;;;;;;-0.84;63.79;101525.92;1787836;80;21138;-62
2023/02/28 01:18:03;;;;;;;5.62;3.12;;;;;;;-0.85;63.78;101525.06;1787944;80;21158;-62
2023/02/28 01:20:33;;;;;;;6.33;2.70;;;;;;;-0.85;63.91;101525.06;1787931;80;21127;-62
2023/02/28 01:23:03;;;;;;;5.65;2.60;;;;;;;-0.83;63.92;101527.17;1788255;80;21107;-62
2023/02/28 01:25:35;;;;;;;5.95;2.98;;;;;;;-0.81;63.83;101530.63;1736075;82;21155;-62
2023/02/28 01:28:06;;;;;;;5.25;2.85;;;;;;;-0.83;63.75;101528.52;1736208;82;21147;-62
2023/02/28 01:30:37;;;;;;;5.17;2.72;;;;;;;-0.82;63.69;101532.08;1661032;86;21640;-62
2023/02/28 01:33:08;;;;;;;5.92;2.72;;;;;;;-0.82;63.54;101526.22;1736626;82;21218;-62
2023/02/28 01:35:38;;;;;;;6.92;2.52;;;;;;;-0.81;63.40;101536.49;1736481;82;21540;-62
2023/02/28 01:38:07;;;;;;;4.22;2.50;;;;;;;-0.83;63.44;101531.69;1728380;82;21162;-62
2023/02/28 01:40:38;;;;;;;5.28;2.90;;;;;;;-0.83;63.45;101532.55;1650973;87;21191;-61
2023/02/28 01:43:22;;;;;;;5.95;3.08;;;;;;;-0.81;63.35;101532.45;1741716;80;21127;-63
2023/02/28 01:45:53;;;;;;;5.28;2.85;;;;;;;-0.83;63.38;101526.31;1782675;80;21080;-63
2023/02/28 01:48:31;;;;;;;3.77;2.60;;;;;;;-0.81;63.33;101530.63;1782570;80;21119;-62
2023/02/28 01:51:05;;;;;;;5.85;2.80;;;;;;;-0.79;63.29;101539.95;1783035;80;21171;-62
2023/02/28 01:53:39;;;;;;;5.30;3.22;;;;;;;-0.81;63.09;101534.67;1782466;80;21549;-62
2023/02/28 01:56:09;;;;;;;5.55;2.62;;;;;;;-0.84;63.10;101534.86;1782395;80;21131;-62
2023/02/28 01:58:38;;;;;;;6.28;2.98;;;;;;;-0.85;63.13;101534.95;1782621;80;21159;-63
2023/02/28 02:01:07;;;;;;;3.85;2.35;;;;;;;-0.83;63.18;101535.25;1782593;80;21127;-63
2023/02/28 02:03:37;;;;;;;6.60;2.67;;;;;;;-0.82;63.05;101542.84;1782451;79;21123;-63
2023/02/28 02:06:06;;;;;;;5.03;2.80;;;;;;;-0.85;62.87;101545.72;1782089;80;21130;-62
2023/02/28 02:08:38;;;;;;;5.30;2.90;;;;;;;-0.87;62.99;101534.19;1782371;80;21099;-63
2023/02/28 02:11:10;;;;;;;7.20;2.80;;;;;;;-0.89;62.91;101537.46;1782707;79;21142;-60
2023/02/28 02:14:01;;;;;;;6.10;2.95;;;;;;;-0.91;62.90;101536.21;1782444;80;21155;-63
2023/02/28 02:16:58;;;;;;;6.70;3.20;;;;;;;-0.91;62.79;101541.59;1782757;80;21593;-63
2023/02/28 02:20:08;;;;;;;6.47;3.10;;;;;;;-0.97;62.87;101544.66;1782513;80;21103;-61
2023/02/28 02:23:24;;;;;;;3.67;2.20;;;;;;;-1.00;62.79;101546.20;1782547;80;21166;-62
2023/02/28 02:25:58;;;;;;;4.12;2.22;;;;;;;-1.00;62.62;101550.23;1782855;80;21111;-62
2023/02/28 02:28:43;;;;;;;6.42;2.65;;;;;;;-1.03;62.64;101551.30;1782475;79;21080;-64
2023/02/28 02:31:31;;;;;;;4.80;2.27;;;;;;;-1.01;62.49;101554.75;1782632;79;21075;-61
2023/02/28 02:34:13;;;;;;;5.75;2.55;;;;;;;-1.04;62.18;101553.59;1763703;80;21151;-62
2023/02/28 02:37:19;;;;;;;4.33;2.37;;;;;;;-1.10;62.19;101554.45;1780300;79;21135;-63
2023/02/28 02:40:22;;;;;;;4.53;2.40;;;;;;;-1.13;62.13;101562.23;1773991;80;21092;-63
2023/02/28 02:43:06;;;;;;;5.87;2.60;;;;;;;-1.16;62.24;101566.46;1712607;82;21202;-62
2023/02/28 02:45:42;;;;;;;6.37;2.50;;;;;;;-1.20;62.42;101575.67;1773037;80;22104;-62
2023/02/28 02:48:16;;;;;;;4.60;2.50;;;;;;;-1.18;62.52;101575.58;1774285;80;21155;-62
2023/02/28 02:50:55;;;;;;;5.20;2.37;;;;;;;-1.18;62.50;101575.09;1773997;81;21147;-62
2023/02/28 02:53:29;;;;;;;4.10;2.50;;;;;;;-1.15;62.23;101575.39;1774327;81;21656;-64
2023/02/28 02:55:58;;;;;;;4.08;2.17;;;;;;;-1.17;62.26;101570.58;1763660;81;21143;-62
2023/02/28 02:58:32;;;;;;;7.03;2.42;;;;;;;-1.18;62.28;101577.79;1774277;81;21147;-61
2023/02/28 03:01:02;;;;;;;8.90;2.80;;;;;;;-1.21;62.35;101569.91;1774223;81;21128;-61
2023/02/28 03:03:33;;;;;;;5.45;2.62;;;;;;;-1.19;62.41;101584.12;1774583;81;21151;-61
2023/02/28 03:06:06;;;;;;;4.12;2.35;;;;;;;-1.18;62.30;101584.98;1774404;81;21151;-63
2023/02/28 03:08:38;;;;;;;6.03;3.55;;;;;;;-1.19;62.25;101587.30;1774292;80;21155;-62
2023/02/28 03:11:12;;;;;;;5.03;2.70;;;;;;;-1.21;62.30;101583.35;1774215;81;21151;-62
2023/02/28 03:14:01;;;;;;;4.58;2.25;;;;;;;-1.20;62.29;101585.09;1774019;80;21319;-62
2023/02/28 03:17:02;;;;;;;6.58;2.90;;;;;;;-1.21;62.28;101585.17;1774159;80;21557;-63
2023/02/28 03:20:04;;;;;;;5.87;3.08;;;;;;;-1.23;62.23;101583.92;1774279;81;21508;-62
2023/02/28 03:23:02;;;;;;;4.17;2.37;;;;;;;-1.20;62.30;101587.77;1774419;79;21112;-61
2023/02/28 03:25:55;;;;;;;6.78;2.62;;;;;;;-1.21;62.18;101586.04;1724333;80;21496;-62
2023/02/28 03:28:46;;;;;;;4.62;2.70;;;;;;;-1.18;62.21;101595.75;1774150;80;21108;-64
2023/02/28 03:31:41;;;;;;;4.40;2.50;;;;;;;-1.18;62.17;101598.44;1774260;80;21139;-62
2023/02/28 03:34:36;;;;;;;4.60;2.27;;;;;;;-1.19;62.16;101594.02;1773848;80;21139;-63
2023/02/28 03:37:12;;;;;;;4.70;2.60;;;;;;;-1.19;62.14;101597.57;1773805;80;21084;-62
2023/02/28 03:39:49;;;;;;;4.40;2.40;;;;;;;-1.21;62.00;101611.59;1774402;80;21167;-61
2023/02/28 03:42:22;;;;;;;6.85;2.60;;;;;;;-1.20;62.00;101605.73;1764049;81;21147;-62
2023/02/28 03:44:56;;;;;;;6.92;3.05;;;;;;;-1.23;62.06;101608.12;1774811;81;21115;-61
2023/02/28 03:47:49;;;;;;;5.20;2.58;;;;;;;-1.24;61.94;101604.19;1774165;79;21178;-63
2023/02/28 03:50:30;;;;;;;4.90;2.72;;;;;;;-1.29;62.07;101605.80;1774608;80;21103;-62
2023/02/28 03:53:14;;;;;;;4.20;2.25;;;;;;;-1.31;62.11;101607.20;1771371;80;21660;-61
2023/02/28 03:55:50;;;;;;;5.33;2.25;;;;;;;-1.29;62.09;101605.80;1774449;81;21183;-64
2023/02/28 03:58:57;;;;;;;4.83;2.50;;;;;;;-1.27;62.08;101609.27;1774641;80;21581;-63
2023/02/28 04:01:43;;;;;;;4.83;2.47;;;;;;;-1.29;62.08;101601.77;1774424;79;22550;-62
2023/02/28 04:04:12;;;;;;;6.15;2.75;;;;;;;-1.27;62.11;101602.55;1774233;81;21198;-62
2023/02/28 04:06:43;;;;;;;4.70;2.62;;;;;;;-1.26;62.00;101611.00;1774476;80;21139;-63
2023/02/28 04:09:13;;;;;;;5.87;2.60;;;;;;;-1.25;61.98;101609.17;1774700;79;21142;-63
2023/02/28 04:11:52;;;;;;;14.63;3.05;;;;;;;-1.23;61.98;101610.81;1774340;80;21092;-63
2023/02/28 04:14:21;;;;;;;10.82;3.00;;;;;;;-1.24;61.79;101603.70;1774437;80;21159;-63
2023/02/28 04:16:52;;;;;;;5.40;2.55;;;;;;;-1.25;61.79;101605.14;1774437;81;21750;-63
2023/02/28 04:19:21;;;;;;;7.87;2.62;;;;;;;-1.33;61.57;101597.02;1774289;81;21602;-62
2023/02/28 04:21:52;;;;;;;8.85;3.15;;;;;;;-1.33;61.79;101605.57;1774019;79;21190;-63
2023/02/28 04:24:26;;;;;;;5.62;2.50;;;;;;;-1.37;61.83;101604.89;1774330;80;21143;-61
2023/02/28 04:26:57;;;;;;;5.42;2.65;;;;;;;-1.37;61.96;101605.37;1774517;79;21171;-64
2023/02/28 04:29:32;;;;;;;4.78;2.33;;;;;;;-1.35;62.01;101608.34;1774575;81;21194;-61
2023/02/28 04:32:02;;;;;;;6.97;2.50;;;;;;;-1.34;61.72;101606.05;1774038;80;21136;-63
2023/02/28 04:34:33;;;;;;;14.50;3.60;;;;;;;-1.38;61.69;101604.50;1774208;80;21644;-62
2023/02/28 04:37:02;;;;;;;5.83;2.40;;;;;;;-1.39;61.84;101608.62;1774194;79;21112;-63
2023/02/28 04:39:36;;;;;;;9.18;3.22;;;;;;;-1.38;61.78;101604.98;1773532;80;21107;-63
2023/02/28 04:42:05;;;;;;;9.30;3.75;;;;;;;-1.40;61.92;101612.27;1774206;80;21155;-63
2023/02/28 04:44:34;;;;;;;7.22;4.05;;;;;;;-1.41;61.96;101618.61;1774111;81;21145;-62
2023/02/28 04:47:03;;;;;;;11.18;3.60;;;;;;;-1.44;62.14;101616.97;1774338;80;21119;-62
2023/02/28 04:49:32;;;;;;;6.83;3.65;;;;;;;-1.41;62.24;101621.30;1774603;79;21110;-65
2023/02/28 04:52:02;;;;;;;7.22;3.30;;;;;;;-1.42;62.27;101623.59;1774323;80;21103;-64
2023/02/28 04:54:31;;;;;;;9.05;3.37;;;;;;;-1.42;62.01;101629.84;1774290;81;21132;-64
2023/02/28 04:57:01;;;;;;;5.33;2.92;;;;;;;-1.44;62.10;101627.72;1774189;80;21111;-63
2023/02/28 04:59:32;;;;;;;10.03;3.42;;;;;;;-1.45;62.02;101626.46;1730715;83;21590;-63
2023/02/28 05:02:06;;;;;;;10.03;3.58;;;;;;;-1.46;62.03;101626.08;1654193;86;21147;-62
2023/02/28 05:04:34;;;;;;;11.33;3.55;;;;;;;-1.48;62.18;101627.99;1730659;83;21135;-63
2023/02/28 05:07:04;;;;;;;6.07;2.90;;;;;;;-1.49;62.18;101627.13;1654143;86;21186;-62
2023/02/28 05:09:33;;;;;;;9.28;3.20;;;;;;;-1.55;62.01;101627.48;1730554;83;21585;-62
2023/02/28 05:12:03;;;;;;;7.00;3.00;;;;;;;-1.64;61.96;101632.05;1654180;85;21135;-62
2023/02/28 05:14:33;;;;;;;7.58;3.08;;;;;;;-1.71;62.03;101634.23;1730701;83;21609;-62
2023/02/28 05:17:02;;;;;;;5.40;2.90;;;;;;;-1.78;62.25;101630.17;1741051;81;21147;-64
2023/02/28 05:19:33;;;;;;;22.85;3.92;;;;;;;-1.77;62.52;101630.56;1774182;80;21100;-62
2023/02/28 05:22:02;;;;;;;9.33;3.58;;;;;;;-1.76;62.62;101632.29;1774092;80;21111;-64
2023/02/28 05:24:33;;;;;;;9.15;3.70;;;;;;;-1.75;62.64;101638.53;1730774;83;21586;-61
2023/02/28 05:27:01;;;;;;;8.70;3.65;;;;;;;-1.74;62.69;101637.58;1654179;86;21214;-64
2023/02/28 05:29:31;;;;;;;10.53;4.12;;;;;;;-1.74;62.71;101634.89;1730800;82;21123;-63
2023/02/28 05:32:01;;;;;;;9.38;3.80;;;;;;;-1.75;62.72;101638.05;1730309;83;21155;-64
2023/02/28 05:34:31;;;;;;;7.70;3.72;;;;;;;-1.74;62.78;101639.78;1730717;83;21222;-63
2023/02/28 05:37:00;;;;;;;13.22;4.50;;;;;;;-1.74;62.82;101638.44;1653878;86;21171;-61
2023/02/28 05:39:30;;;;;;;13.58;4.40;;;;;;;-1.73;62.86;101646.02;1730902;83;21119;-65
2023/02/28 05:42:00;;;;;;;11.85;3.95;;;;;;;-1.73;62.74;101641.52;1665643;84;21138;-61
2023/02/28 05:44:30;;;;;;;10.15;3.92;;;;;;;-1.76;62.78;101649.75;1774265;81;21633;-62
2023/02/28 05:46:59;;;;;;;7.83;4.15;;;;;;;-1.77;62.95;101645.33;1774204;80;21803;-61
2023/02/28 05:49:29;;;;;;;9.63;3.62;;;;;;;-1.74;63.11;101645.64;1774286;80;21167;-64
2023/02/28 05:52:00;;;;;;;13.78;4.28;;;;;;;-1.72;63.17;101643.73;1763854;81;21112;-62
2023/02/28 05:54:31;;;;;;;9.45;3.58;;;;;;;-1.66;63.34;101646.92;1774182;81;21193;-63
2023/02/28 05:57:00;;;;;;;10.60;4.40;;;;;;;-1.63;63.18;101652.12;1774433;79;21579;-63
2023/02/28 05:59:30;;;;;;;8.05;4.25;;;;;;;-1.62;63.29;101657.02;1774331;79;21143;-62
2023/02/28 06:01:59;;;;;;;11.05;4.00;;;;;;;-1.62;63.43;101659.23;1774401;81;21112;-66
2023/02/28 06:04:30;;;;;;;9.78;3.70;;;;;;;-1.63;63.49;101662.87;1763740;81;21194;-65
2023/02/28 06:07:03;;;;;;;12.68;3.92;;;;;;;-1.64;63.57;101659.79;1774238;79;21586;-64
2023/02/28 06:09:32;;;;;;;14.95;5.15;;;;;;;-1.64;63.69;101662.48;1774449;81;21159;-64
2023/02/28 06:12:05;;;;;;;14.53;4.03;;;;;;;-1.61;63.85;101664.98;1774362;81;21143;-63
2023/02/28 06:14:35;;;;;;;14.83;5.80;;;;;;;-1.56;63.99;101669.23;1774266;79;21146;-63
2023/02/28 06:17:05;;;;;;;10.60;3.72;;;;;;;-1.51;64.08;101672.52;1774249;80;21107;-63
2023/02/28 06:19:34;;;;;;;14.13;4.00;;;;;;;-1.49;64.09;101670.13;1774279;81;21107;-64
2023/02/28 06:22:03;;;;;;;15.00;4.45;;;;;;;-1.46;64.02;101673.98;1774154;80;21135;-62
2023/02/28 06:24:32;;;;;;;19.70;4.78;;;;;;;-1.48;63.76;101674.55;1774189;81;21597;-63
2023/02/28 06:27:04;;;;;;;10.63;3.98;;;;;;;-1.52;63.85;101677.50;1774152;81;21527;-62
2023/02/28 06:29:34;;;;;;;13.15;4.03;;;;;;;-1.52;63.92;101664.93;1774487;80;21139;-63
2023/02/28 06:32:03;;;;;;;11.10;4.08;;;;;;;-1.51;63.87;101673.86;1773812;80;21159;-64
2023/02/28 06:34:33;;;;;;;13.60;4.58;;;;;;;-1.52;63.93;101662.72;1774286;80;21546;-64
2023/02/28 06:37:04;;;;;;;11.30;4.40;;;;;;;-1.53;63.91;101666.36;1774479;81;21142;-64
2023/02/28 06:39:36;;;;;;;9.55;3.90;;;;;;;-1.52;63.87;101667.62;1766003;80;21127;-63
2023/02/28 06:42:05;;;;;;;10.93;4.10;;;;;;;-1.50;63.76;101668.88;1784464;80;21163;-64
2023/02/28 06:44:37;;;;;;;10.48;4.42;;;;;;;-1.54;63.73;101668.66;1784194;80;21150;-65
2023/02/28 06:47:07;;;;;;;8.23;3.37;;;;;;;-1.51;63.94;101672.52;1784634;80;21115;-62
2023/02/28 06:49:38;;;;;;;8.85;3.80;;;;;;;-1.47;63.64;101673.59;1701465;83;21139;-65
2023/02/28 06:52:09;;;;;;;8.30;3.83;;;;;;;-1.45;63.69;101669.47;1701779;84;21558;-62
2023/02/28 06:54:40;;;;;;;14.18;4.78;;;;;;;-1.41;63.59;101661.62;1701484;84;21250;-64
2023/02/28 06:57:09;;;;;;;13.68;4.20;;;;;;;-1.39;63.46;101664.59;1701038;84;21628;-63
2023/02/28 06:59:38;;;;;;;11.83;4.40;;;;;;;-1.36;63.39;101671.14;1701708;84;21178;-65
2023/02/28 07:02:08;;;;;;;12.93;4.30;;;;;;;-1.37;63.41;101655.10;1701673;84;21103;-64
2023/02/28 07:04:43;;;;;;;8.55;3.30;;;;;;;-1.35;63.34;101653.19;1701482;84;21547;-63
2023/02/28 07:07:08;;;;;;;9.48;3.37;;;;;;;-1.37;63.40;101657.79;1649753;83;21106;-63
2023/02/28 07:09:38;;;;;;;7.60;3.40;;;;;;;-1.37;63.43;101649.25;1784190;80;21919;-64
2023/02/28 07:12:07;;;;;;;8.78;3.30;;;;;;;-1.37;63.45;101662.69;1784491;79;21143;-63
2023/02/28 07:14:37;;;;;;;13.50;3.83;;;;;;;-1.34;63.59;101653.09;1784822;79;21107;-62
2023/02/28 07:17:12;;;;;;;18.75;4.58;;;;;;;-1.31;63.58;101650.70;1785214;80;21107;-63
2023/02/28 07:19:41;;;;;;;33.90;5.22;;;;;;;-1.27;63.63;101653.63;1784859;80;21580;-63
2023/02/28 07:22:10;;;;;;;12.35;4.00;;;;;;;-1.21;63.46;101659.12;1784336;80;21167;-64
2023/02/28 07:24:39;;;;;;;17.85;4.17;;;;;;;-1.22;63.43;101646.16;1785191;79;21087;-64
2023/02/28 07:27:08;;;;;;;11.50;3.33;;;;;;;-1.23;63.28;101644.42;1784932;80;21130;-62
2023/02/28 07:29:38;;;;;;;18.07;4.53;;;;;;;-1.25;63.33;101653.06;1784829;80;21108;-63
2023/02/28 07:32:08;;;;;;;11.28;3.80;;;;;;;-1.24;63.38;101649.89;1784788;80;21158;-63
2023/02/28 07:34:39;;;;;;;9.20;3.20;;;;;;;-1.26;63.20;101654.50;1784572;80;21611;-64
2023/02/28 07:37:10;;;;;;;12.95;4.15;;;;;;;-1.27;63.33;101658.14;1784502;79;21088;-63
2023/02/28 07:39:43;;;;;;;15.28;3.33;;;;;;;-1.25;63.41;101661.13;1776385;80;21092;-64
2023/02/28 07:42:12;;;;;;;12.23;4.12;;;;;;;-1.24;63.26;101654.80;1774380;81;21108;-64
2023/02/28 07:44:42;;;;;;;12.20;4.30;;;;;;;-1.26;63.39;101656.70;1774409;80;21151;-64
2023/02/28 07:47:11;;;;;;;9.43;3.67;;;;;;;-1.22;63.53;101645.29;1774066;79;21166;-62
2023/02/28 07:49:41;;;;;;;17.92;5.30;;;;;;;-1.19;63.46;101650.48;1774472;81;21107;-62
2023/02/28 07:52:10;;;;;;;11.57;4.20;;;;;;;-1.18;63.33;101650.39;1737668;82;21083;-62
2023/02/28 07:54:42;;;;;;;15.90;3.83;;;;;;;-1.20;63.25;101656.34;1774188;81;21530;-62
2023/02/28 07:57:10;;;;;;;13.13;4.50;;;;;;;-1.25;63.10;101657.58;1774293;80;21084;-63
2023/02/28 07:59:40;;;;;;;12.78;4.08;;;;;;;-1.25;63.44;101654.88;1774696;80;21151;-63
2023/02/28 08:02:16;;;;;;;10.18;4.75;;;;;;;-1.22;63.51;101655.57;1774107;79;21591;-64
2023/02/28 08:04:45;;;;;;;10.23;3.30;;;;;;;-1.17;63.53;101657.98;1774235;79;21416;-63
2023/02/28 08:07:17;;;;;;;7.45;3.25;;;;;;;-1.16;63.31;101659.23;1774318;80;21359;-64
2023/02/28 08:09:47;;;;;;;8.43;3.90;;;;;;;-1.16;63.24;101655.20;1774428;80;21179;-65
2023/02/28 08:12:17;;;;;;;290.55;168.30;;;;;;;-1.21;63.08;101651.92;1774387;79;21123;-64
2023/02/28 08:14:48;;;;;;;32.85;10.28;;;;;;;-1.22;63.33;101643.95;1774295;81;21119;-65
2023/02/28 08:17:17;;;;;;;12.13;6.22;;;;;;;-1.16;63.52;101651.65;1774323;80;21660;-65
2023/02/28 08:19:46;;;;;;;11.95;3.87;;;;;;;-1.06;63.41;101652.83;1774320;79;21112;-65
2023/02/28 08:22:17;;;;;;;6.75;3.85;;;;;;;-1.03;63.14;101661.57;1730835;82;21123;-66
2023/02/28 08:24:46;;;;;;;7.72;3.65;;;;;;;-0.99;62.78;101659.09;1730768;83;21210;-70
2023/02/28 08:27:15;;;;;;;8.63;3.67;;;;;;;-0.97;62.41;101665.23;1654301;86;21220;-62
2023/02/28 08:29:44;;;;;;;11.60;3.85;;;;;;;-0.98;62.39;101659.47;1730851;83;21123;-64
2023/02/28 08:32:14;;;;;;;10.75;3.45;;;;;;;-0.94;62.56;101657.94;1731105;83;21189;-66
2023/02/28 08:34:45;;;;;;;8.25;4.00;;;;;;;-0.92;62.15;101647.95;1726492;83;21177;-62
2023/02/28 08:37:16;;;;;;;8.50;3.90;;;;;;;-0.86;62.30;101648.44;1654424;86;21135;-71
2023/02/28 08:39:45;;;;;;;7.58;3.58;;;;;;;-0.76;62.02;101648.73;1741988;80;21151;-63
2023/02/28 08:42:14;;;;;;;6.60;3.40;;;;;;;-0.70;61.65;101651.92;1784573;80;21202;-63
2023/02/28 08:44:45;;;;;;;8.45;4.00;;;;;;;-0.69;61.30;101646.05;1784838;80;21111;-64
2023/02/28 08:47:14;;;;;;;17.07;4.78;;;;;;;-0.72;61.15;101649.80;1785017;80;21506;-64
2023/02/28 08:49:43;;;;;;;10.25;4.50;;;;;;;-0.65;61.32;101648.49;1784850;79;21174;-64
2023/02/28 08:52:13;;;;;;;10.10;4.45;;;;;;;-0.52;61.18;101636.48;1784693;80;21154;-64
2023/02/28 08:54:42;;;;;;;9.00;3.90;;;;;;;-0.42;60.84;101638.11;1784977;80;21138;-68
2023/02/28 08:57:11;;;;;;;10.95;4.87;;;;;;;-0.37;60.45;101639.55;1769236;80;21111;-64
2023/02/28 08:59:41;;;;;;;9.93;3.92;;;;;;;-0.38;61.53;101645.03;1753768;80;21140;-60
2023/02/28 09:02:13;;;;;;;11.83;4.00;;;;;;;-0.24;61.35;101642.81;1753839;82;21626;-61
2023/02/28 09:04:42;;;;;;;14.35;5.33;;;;;;;-0.09;60.81;101650.77;1753685;82;21223;-61
2023/02/28 09:07:11;;;;;;;7.92;4.40;;;;;;;0.01;60.23;101639.43;1753776;82;21533;-62
2023/02/28 09:09:53;;;;;;;13.15;4.45;;;;;;;0.08;59.93;101640.77;1753787;81;21203;-61
2023/02/28 09:12:12;;;;;;;9.40;4.50;;;;;;;0.10;59.64;101641.53;1752542;80;21109;-62
2023/02/28 09:14:41;;;;;;;11.08;4.92;;;;;;;0.12;59.47;101643.16;1753644;80;22194;-62
2023/02/28 09:17:10;;;;;;;17.98;5.58;;;;;;;0.14;59.43;101638.53;1753192;81;21144;-61
2023/02/28 09:19:39;;;;;;;9.80;4.58;;;;;;;0.23;59.65;101642.45;1753709;80;21556;-60
2023/02/28 09:22:11;;;;;;;11.18;4.90;;;;;;;0.31;59.05;101643.67;1753517;80;21144;-61
2023/02/28 09:24:41;;;;;;;15.75;5.45;;;;;;;0.35;58.83;101642.12;1753803;81;21213;-61
2023/02/28 09:27:09;;;;;;;9.98;4.78;;;;;;;0.37;58.71;101641.54;1753742;82;21116;-62
2023/02/28 09:29:41;;;;;;;14.45;5.03;;;;;;;0.36;58.34;101647.41;1753718;80;21152;-62
2023/02/28 09:32:11;;;;;;;12.23;4.92;;;;;;;0.33;58.05;101640.02;1754324;79;21165;-60
2023/02/28 09:34:39;;;;;;;11.75;4.75;;;;;;;0.27;58.15;101638.59;1768010;80;21543;-61
2023/02/28 09:37:08;;;;;;;10.18;5.15;;;;;;;0.30;58.50;101636.55;1779491;80;21158;-61
2023/02/28 09:39:37;;;;;;;12.10;5.25;;;;;;;0.37;58.29;101633.45;1779036;79;21223;-64
2023/02/28 09:42:11;;;;;;;8.23;4.47;;;;;;;0.40;58.21;101634.59;1753570;80;21147;-63
2023/02/28 09:44:44;;;;;;;10.63;5.05;;;;;;;0.41;58.06;101632.28;1760206;81;21112;-63
2023/02/28 09:47:34;;;;;;;9.60;4.80;;;;;;;0.38;57.89;101627.95;1774370;80;21127;-64
2023/02/28 09:50:36;;;;;;;9.90;5.67;;;;;;;0.41;57.97;101626.89;1756553;81;21198;-61
2023/02/28 09:53:33;;;;;;;12.03;5.25;;;;;;;0.40;57.74;101621.11;1733037;83;21114;-60
2023/02/28 09:56:07;;;;;;;15.48;5.20;;;;;;;0.36;57.76;101619.59;1733298;81;21146;-63
2023/02/28 09:58:55;;;;;;;10.60;5.42;;;;;;;0.37;57.84;101607.36;1743698;82;21524;-63
2023/02/28 10:01:45;;;;;;;;;;;;;;;0.43;57.94;101606.94;1746194;81;21613;-63
2023/02/28 10:04:55;;;;;;;9.00;4.97;;;;;;;0.49;57.51;101604.31;1743537;82;20199;-62
2023/02/28 10:07:59;;;;;;;10.93;4.90;;;;;;;0.48;57.11;101607.98;1760395;79;21143;-65
2023/02/28 10:10:38;;;;;;;17.87;4.97;;;;;;;0.53;58.71;101603.14;1774160;81;21131;-65
2023/02/28 10:13:24;;;;;;;9.10;4.62;;;;;;;0.55;57.10;101593.11;1774214;81;21187;-65
2023/02/28 10:15:57;;;;;;;8.73;4.95;;;;;;;0.56;57.00;101588.11;1774409;81;21080;-64
2023/02/28 10:18:56;;;;;;;9.23;5.30;;;;;;;0.62;57.13;101590.38;1774060;81;21108;-64
2023/02/28 10:21:40;;;;;;;9.90;5.00;;;;;;;0.72;57.11;101579.86;1774280;79;21174;-65
2023/02/28 10:24:32;;;;;;;12.73;5.37;;;;;;;0.86;56.91;101579.28;1774148;81;21104;-63
2023/02/28 10:27:13;;;;;;;18.82;5.50;;;;;;;0.92;56.42;101591.48;1774249;81;21108;-63
2023/02/28 10:29:51;;;;;;;9.20;4.80;;;;;;;0.96;55.91;101582.20;1699103;84;21673;-64
2023/02/28 10:32:31;;;;;;;8.58;4.37;;;;;;;0.95;55.74;101577.30;1701358;83;21213;-64
2023/02/28 10:35:11;;;;;;;10.63;4.90;;;;;;;0.97;56.68;101572.27;1682131;84;21118;-63
2023/02/28 10:37:46;;;;;;;9.03;4.58;;;;;;;0.86;55.59;101568.98;1673174;84;21161;-65
2023/02/28 10:40:26;;;;;;;11.05;4.05;;;;;;;0.80;55.24;101566.70;1676471;84;21181;-66
2023/02/28 10:43:19;;;;;;;8.75;4.25;;;;;;;0.78;55.25;101564.11;1706874;84;21202;-65
2023/02/28 10:46:13;;;;;;;10.82;5.05;;;;;;;0.81;55.12;101571.13;1683695;84;21103;-65
2023/02/28 10:48:47;;;;;;;8.58;4.58;;;;;;;0.79;55.01;101565.84;1706688;84;21130;-64
2023/02/28 10:51:19;;;;;;;10.43;3.98;;;;;;;0.82;54.72;101571.02;1706709;83;21130;-64
2023/02/28 10:53:54;;;;;;;12.33;3.92;;;;;;;0.79;54.36;101569.02;1732009;80;21170;-67
2023/02/28 10:56:27;;;;;;;12.95;4.40;;;;;;;0.76;54.46;101559.80;1771641;80;21103;-63
2023/02/28 10:59:09;;;;;;;16.65;4.60;;;;;;;0.74;54.35;101553.16;1787526;79;21134;-65
2023/02/28 11:01:45;;;;;;;7.22;3.77;;;;;;;0.68;54.38;101557.62;1786997;79;21111;-66
2023/02/28 11:04:21;;;;;;;10.32;3.65;;;;;;;0.69;54.40;101557.14;1786837;79;21099;-65
2023/02/28 11:07:01;;;;;;;11.45;4.03;;;;;;;0.72;54.96;101560.49;1787872;80;21123;-66
2023/02/28 11:09:40;;;;;;;7.67;4.25;;;;;;;0.74;54.99;101547.77;1787566;80;21170;-66
2023/02/28 11:12:20;;;;;;;7.72;3.87;;;;;;;0.72;54.39;101545.66;1787870;80;21111;-65
2023/02/28 11:14:52;;;;;;;5.78;3.90;;;;;;;0.66;54.61;101537.98;1788080;79;21158;-65
2023/02/28 11:17:27;;;;;;;9.25;3.77;;;;;;;0.65;54.98;101547.05;1787531;80;21524;-70
2023/02/28 11:20:04;;;;;;;10.32;4.08;;;;;;;0.68;55.01;101541.93;1787994;80;21574;-65
2023/02/28 11:22:38;;;;;;;8.75;4.28;;;;;;;0.72;54.97;101536.22;1788205;80;21154;-63
2023/02/28 11:25:17;;;;;;;8.90;4.28;;;;;;;0.77;54.93;101535.41;1787835;79;21166;-63
2023/02/28 11:27:51;;;;;;;9.78;4.85;;;;;;;0.79;55.11;101523.16;1784367;79;21178;-67
2023/02/28 11:30:31;;;;;;;15.08;5.00;;;;;;;0.82;54.80;101524.30;1787970;80;21166;-64
2023/02/28 11:33:00;;;;;;;8.75;4.50;;;;;;;0.80;55.00;101528.45;1788021;79;21629;-64
2023/02/28 11:35:34;;;;;;;11.20;4.10;;;;;;;0.83;54.96;101518.80;1787930;80;21166;-65
2023/02/28 11:38:07;;;;;;;8.60;4.60;;;;;;;0.87;55.08;101514.91;1787702;80;21119;-67
2023/02/28 11:40:57;;;;;;;11.80;4.90;;;;;;;0.87;54.80;101516.26;1775734;80;21147;-70
2023/02/28 11:44:00;;;;;;;10.85;5.25;;;;;;;0.89;54.94;101518.36;1756769;82;21095;-66
2023/02/28 11:46:54;;;;;;;10.53;4.50;;;;;;;0.92;54.77;101513.23;1756793;81;21118;-66
2023/02/28 11:49:38;;;;;;;9.08;5.00;;;;;;;0.94;54.46;101498.66;1757073;82;21111;-63
2023/02/28 11:52:39;;;;;;;14.78;5.90;;;;;;;0.97;54.39;101502.11;1757053;82;21190;-65
2023/02/28 11:55:36;;;;;;;13.35;5.45;;;;;;;1.00;54.64;101507.30;1756895;82;21628;-66
2023/02/28 11:58:41;;;;;;;8.15;4.87;;;;;;;1.07;54.89;101506.75;1756982;82;21594;-66